sensor_id;sensor_type;location;lat;lon;timestamp;pressure;altitude;pressure_sealevel;temperature;humidity
75208;BME280;63795;55.684;37.864;2023-05-25T00:04:47;99865.41;;;16.58;65.34
75208;BME280;63795;55.684;37.864;2023-05-25T00:09:47;99854.50;;;16.53;65.25
75208;BME280;63795;55.684;37.864;2023-05-25T00:14:48;99856.91;;;16.54;67.28
75208;BME280;63795;55.684;37.864;2023-05-25T00:19:49;99842.84;;;16.44;65.80
75208;BME280;63795;55.684;37.864;2023-05-25T00:24:49;99846.97;;;16.43;70.03
75208;BME280;63795;55.684;37.864;2023-05-25T00:29:50;99839.44;;;16.33;66.54
75208;BME280;63795;55.684;37.864;2023-05-25T00:34:50;99838.72;;;16.29;66.72
75208;BME280;63795;55.684;37.864;2023-05-25T00:39:51;99836.38;;;16.24;67.00
75208;BME280;63795;55.684;37.864;2023-05-25T00:44:51;99834.94;;;16.15;66.57
75208;BME280;63795;55.684;37.864;2023-05-25T00:49:52;99816.28;;;16.11;68.59
75208;BME280;63795;55.684;37.864;2023-05-25T00:54:58;99829.94;;;16.03;71.22
75208;BME280;63795;55.684;37.864;2023-05-25T01:00:01;99819.84;;;15.99;68.88
75208;BME280;63795;55.684;37.864;2023-05-25T01:05:07;99799.09;;;15.95;68.25
75208;BME280;63795;55.684;37.864;2023-05-25T01:10:10;99796.25;;;15.95;68.12
75208;BME280;63795;55.684;37.864;2023-05-25T01:15:12;99800.97;;;16.01;67.44
75208;BME280;63795;55.684;37.864;2023-05-25T01:20:13;99804.19;;;16.03;67.42
75208;BME280;63795;55.684;37.864;2023-05-25T01:25:38;99812.16;;;16.12;67.23
75208;BME280;63795;55.684;37.864;2023-05-25T01:30:41;99811.19;;;16.18;69.34
75208;BME280;63795;55.684;37.864;2023-05-25T01:35:43;99816.91;;;16.02;70.98
75208;BME280;63795;55.684;37.864;2023-05-25T01:40:44;99813.41;;;15.95;70.66
75208;BME280;63795;55.684;37.864;2023-05-25T01:45:45;99822.50;;;15.90;68.25
75208;BME280;63795;55.684;37.864;2023-05-25T01:50:50;99816.63;;;15.97;68.01
75208;BME280;63795;55.684;37.864;2023-05-25T01:55:56;99818.13;;;16.01;69.38
75208;BME280;63795;55.684;37.864;2023-05-25T02:00:58;99825.72;;;15.92;69.46
75208;BME280;63795;55.684;37.864;2023-05-25T02:05:58;99827.25;;;15.96;68.85
75208;BME280;63795;55.684;37.864;2023-05-25T02:11:00;99823.06;;;16.01;72.79
75208;BME280;63795;55.684;37.864;2023-05-25T02:16:01;99829.56;;;16.01;73.43
75208;BME280;63795;55.684;37.864;2023-05-25T02:21:02;99836.91;;;16.02;70.42
75208;BME280;63795;55.684;37.864;2023-05-25T02:26:02;99846.94;;;16.10;69.53
75208;BME280;63795;55.684;37.864;2023-05-25T02:31:02;99845.25;;;16.13;69.88
75208;BME280;63795;55.684;37.864;2023-05-25T02:36:03;99847.66;;;16.14;73.57
75208;BME280;63795;55.684;37.864;2023-05-25T02:41:04;99833.50;;;16.07;71.19
75208;BME280;63795;55.684;37.864;2023-05-25T02:46:05;99839.69;;;16.22;70.40
75208;BME280;63795;55.684;37.864;2023-05-25T02:51:05;99831.22;;;16.35;72.59
75208;BME280;63795;55.684;37.864;2023-05-25T02:56:06;99837.41;;;16.33;70.49
75208;BME280;63795;55.684;37.864;2023-05-25T03:01:09;99840.78;;;16.44;69.74
75208;BME280;63795;55.684;37.864;2023-05-25T03:06:10;99850.22;;;16.61;69.43
75208;BME280;63795;55.684;37.864;2023-05-25T03:11:11;99842.59;;;16.70;69.83
75208;BME280;63795;55.684;37.864;2023-05-25T03:16:12;99850.81;;;16.68;71.54
75208;BME280;63795;55.684;37.864;2023-05-25T03:21:12;99849.22;;;16.67;72.76
75208;BME280;63795;55.684;37.864;2023-05-25T03:26:14;99855.75;;;16.68;72.03
75208;BME280;63795;55.684;37.864;2023-05-25T03:31:14;99851.44;;;16.76;70.59
75208;BME280;63795;55.684;37.864;2023-05-25T03:36:15;99847.22;;;16.96;71.02
75208;BME280;63795;55.684;37.864;2023-05-25T03:41:16;99849.78;;;17.07;71.91
75208;BME280;63795;55.684;37.864;2023-05-25T03:46:17;99849.94;;;17.16;71.21
75208;BME280;63795;55.684;37.864;2023-05-25T03:51:17;99849.88;;;17.32;70.22
75208;BME280;63795;55.684;37.864;2023-05-25T03:56:18;99841.22;;;17.48;69.61
75208;BME280;63795;55.684;37.864;2023-05-25T04:01:18;99823.63;;;17.62;69.17
75208;BME280;63795;55.684;37.864;2023-05-25T04:06:19;99819.19;;;17.74;68.86
75208;BME280;63795;55.684;37.864;2023-05-25T04:11:20;99828.84;;;17.93;68.76
75208;BME280;63795;55.684;37.864;2023-05-25T04:16:24;99828.50;;;18.03;68.98
75208;BME280;63795;55.684;37.864;2023-05-25T04:21:25;99825.41;;;18.10;68.98
75208;BME280;63795;55.684;37.864;2023-05-25T04:26:26;99829.78;;;18.27;68.64
75208;BME280;63795;55.684;37.864;2023-05-25T04:31:27;99827.69;;;18.40;67.81
75208;BME280;63795;55.684;37.864;2023-05-25T04:36:27;99835.84;;;18.67;67.94
75208;BME280;63795;55.684;37.864;2023-05-25T04:41:28;99840.84;;;18.88;67.59
75208;BME280;63795;55.684;37.864;2023-05-25T04:46:29;99840.59;;;18.95;67.42
75208;BME280;63795;55.684;37.864;2023-05-25T04:51:30;99821.41;;;18.92;66.60
75208;BME280;63795;55.684;37.864;2023-05-25T04:56:31;99832.88;;;18.92;66.86
75208;BME280;63795;55.684;37.864;2023-05-25T05:01:32;99838.75;;;19.01;67.20
75208;BME280;63795;55.684;37.864;2023-05-25T05:06:34;99839.16;;;19.12;67.22
75208;BME280;63795;55.684;37.864;2023-05-25T05:11:35;99825.91;;;19.15;66.83
75208;BME280;63795;55.684;37.864;2023-05-25T05:16:36;99845.31;;;19.23;66.87
75208;BME280;63795;55.684;37.864;2023-05-25T05:21:36;99837.97;;;19.22;67.38
75208;BME280;63795;55.684;37.864;2023-05-25T05:26:40;99835.50;;;19.12;67.48
75208;BME280;63795;55.684;37.864;2023-05-25T05:31:41;99835.94;;;19.10;67.45
75208;BME280;63795;55.684;37.864;2023-05-25T05:36:42;99826.88;;;19.12;66.74
75208;BME280;63795;55.684;37.864;2023-05-25T05:41:42;99830.53;;;19.12;67.07
75208;BME280;63795;55.684;37.864;2023-05-25T05:46:44;99835.16;;;19.10;67.19
75208;BME280;63795;55.684;37.864;2023-05-25T05:51:45;99847.44;;;19.10;67.24
75208;BME280;63795;55.684;37.864;2023-05-25T05:56:45;99840.56;;;19.08;67.38
75208;BME280;63795;55.684;37.864;2023-05-25T06:01:46;99835.88;;;19.01;66.90
75208;BME280;63795;55.684;37.864;2023-05-25T06:06:46;99840.00;;;19.00;66.93
75208;BME280;63795;55.684;37.864;2023-05-25T06:11:47;99850.38;;;18.98;66.63
75208;BME280;63795;55.684;37.864;2023-05-25T06:16:47;99833.69;;;18.93;66.86
75208;BME280;63795;55.684;37.864;2023-05-25T06:21:48;99839.25;;;18.87;67.01
75208;BME280;63795;55.684;37.864;2023-05-25T06:26:48;99850.28;;;18.76;68.72
75208;BME280;63795;55.684;37.864;2023-05-25T06:31:48;99865.47;;;18.64;69.25
75208;BME280;63795;55.684;37.864;2023-05-25T06:36:49;99857.56;;;18.55;71.70
75208;BME280;63795;55.684;37.864;2023-05-25T06:41:49;99851.38;;;18.44;73.02
75208;BME280;63795;55.684;37.864;2023-05-25T06:46:50;99861.91;;;18.35;74.31
75208;BME280;63795;55.684;37.864;2023-05-25T06:51:51;99857.09;;;18.19;75.64
75208;BME280;63795;55.684;37.864;2023-05-25T06:56:51;99856.75;;;18.05;76.12
75208;BME280;63795;55.684;37.864;2023-05-25T07:01:52;99857.31;;;18.00;77.44
75208;BME280;63795;55.684;37.864;2023-05-25T07:06:53;99852.13;;;17.95;75.01
75208;BME280;63795;55.684;37.864;2023-05-25T07:11:53;99842.16;;;17.99;77.21
75208;BME280;63795;55.684;37.864;2023-05-25T07:16:54;99853.53;;;18.03;74.57
75208;BME280;63795;55.684;37.864;2023-05-25T07:21:55;99843.97;;;18.06;73.75
75208;BME280;63795;55.684;37.864;2023-05-25T07:26:55;99853.75;;;18.21;76.42
75208;BME280;63795;55.684;37.864;2023-05-25T07:31:56;99861.69;;;18.17;76.72
75208;BME280;63795;55.684;37.864;2023-05-25T07:36:57;99850.31;;;18.01;77.13
75208;BME280;63795;55.684;37.864;2023-05-25T07:41:57;99855.81;;;17.95;78.66
75208;BME280;63795;55.684;37.864;2023-05-25T07:46:58;99844.53;;;17.88;79.37
75208;BME280;63795;55.684;37.864;2023-05-25T07:51:58;99844.13;;;17.90;77.04
75208;BME280;63795;55.684;37.864;2023-05-25T07:56:59;99840.31;;;17.93;79.33
75208;BME280;63795;55.684;37.864;2023-05-25T08:02:00;99838.69;;;17.79;80.26
75208;BME280;63795;55.684;37.864;2023-05-25T08:07:00;99843.84;;;17.71;81.17
75208;BME280;63795;55.684;37.864;2023-05-25T08:12:01;99838.91;;;17.72;79.19
75208;BME280;63795;55.684;37.864;2023-05-25T08:17:02;99839.41;;;17.83;77.28
75208;BME280;63795;55.684;37.864;2023-05-25T08:22:04;99834.91;;;17.82;77.52
75208;BME280;63795;55.684;37.864;2023-05-25T08:27:04;99838.81;;;17.75;78.77
75208;BME280;63795;55.684;37.864;2023-05-25T08:32:05;99836.72;;;17.63;81.27
75208;BME280;63795;55.684;37.864;2023-05-25T08:37:06;99846.78;;;17.55;82.03
75208;BME280;63795;55.684;37.864;2023-05-25T08:42:06;99856.41;;;17.49;82.70
75208;BME280;63795;55.684;37.864;2023-05-25T08:47:07;99843.97;;;17.39;81.78
75208;BME280;63795;55.684;37.864;2023-05-25T08:52:12;99851.28;;;17.40;79.72
75208;BME280;63795;55.684;37.864;2023-05-25T09:02:53;99848.28;;;17.60;79.45
75208;BME280;63795;55.684;37.864;2023-05-25T09:07:55;99847.56;;;17.56;81.71
75208;BME280;63795;55.684;37.864;2023-05-25T09:12:57;99842.22;;;17.42;83.15
75208;BME280;63795;55.684;37.864;2023-05-25T09:17:58;99845.16;;;17.26;84.05
75208;BME280;63795;55.684;37.864;2023-05-25T09:22:59;99846.56;;;17.34;81.97
75208;BME280;63795;55.684;37.864;2023-05-25T09:28:00;99836.41;;;17.45;81.52
75208;BME280;63795;55.684;37.864;2023-05-25T09:33:13;99831.00;;;17.63;80.76
75208;BME280;63795;55.684;37.864;2023-05-25T09:38:16;99835.44;;;17.64;84.38
75208;BME280;63795;55.684;37.864;2023-05-25T09:43:17;99834.50;;;17.55;83.97
75208;BME280;63795;55.684;37.864;2023-05-25T09:48:17;99831.31;;;17.53;81.96
75208;BME280;63795;55.684;37.864;2023-05-25T09:53:19;99829.06;;;17.73;81.95
75208;BME280;63795;55.684;37.864;2023-05-25T09:58:26;99831.00;;;17.89;82.44
75208;BME280;63795;55.684;37.864;2023-05-25T10:03:26;99826.56;;;17.88;83.84
75208;BME280;63795;55.684;37.864;2023-05-25T10:08:27;99811.06;;;17.85;82.86
75208;BME280;63795;55.684;37.864;2023-05-25T10:13:29;99803.34;;;17.82;81.71
75208;BME280;63795;55.684;37.864;2023-05-25T10:18:32;99823.25;;;18.02;82.32
75208;BME280;63795;55.684;37.864;2023-05-25T10:23:38;99819.53;;;18.14;81.99
75208;BME280;63795;55.684;37.864;2023-05-25T10:28:43;99819.44;;;18.17;81.85
75208;BME280;63795;55.684;37.864;2023-05-25T10:33:45;99824.13;;;18.24;82.12
75208;BME280;63795;55.684;37.864;2023-05-25T10:38:46;99817.47;;;18.39;81.13
75208;BME280;63795;55.684;37.864;2023-05-25T10:43:49;99806.94;;;18.49;80.43
75208;BME280;63795;55.684;37.864;2023-05-25T10:48:51;99810.00;;;18.54;80.97
75208;BME280;63795;55.684;37.864;2023-05-25T10:53:58;99803.25;;;18.48;80.32
75208;BME280;63795;55.684;37.864;2023-05-25T10:59:00;99796.00;;;18.56;80.93
75208;BME280;63795;55.684;37.864;2023-05-25T11:09:27;99782.19;;;18.64;80.26
75208;BME280;63795;55.684;37.864;2023-05-25T11:14:29;99782.97;;;18.77;79.87
75208;BME280;63795;55.684;37.864;2023-05-25T11:19:48;99774.72;;;19.01;80.11
75208;BME280;63795;55.684;37.864;2023-05-25T11:24:50;99774.53;;;19.17;78.88
75208;BME280;63795;55.684;37.864;2023-05-25T11:29:52;99776.75;;;19.34;78.68
75208;BME280;63795;55.684;37.864;2023-05-25T11:34:53;99764.72;;;19.48;78.89
75208;BME280;63795;55.684;37.864;2023-05-25T11:39:54;99772.84;;;19.72;77.62
75208;BME280;63795;55.684;37.864;2023-05-25T11:44:55;99754.94;;;19.68;77.43
75208;BME280;63795;55.684;37.864;2023-05-25T11:49:56;99755.47;;;19.84;77.39
75208;BME280;63795;55.684;37.864;2023-05-25T11:54:56;99759.22;;;20.03;76.65
75208;BME280;63795;55.684;37.864;2023-05-25T11:59:59;99752.22;;;20.13;75.12
75208;BME280;63795;55.684;37.864;2023-05-25T12:05:01;99759.06;;;20.37;74.22
75208;BME280;63795;55.684;37.864;2023-05-25T12:10:08;99759.69;;;20.32;73.03
75208;BME280;63795;55.684;37.864;2023-05-25T12:15:12;99749.34;;;20.13;74.09
75208;BME280;63795;55.684;37.864;2023-05-25T12:20:15;99730.16;;;20.10;73.42
75208;BME280;63795;55.684;37.864;2023-05-25T12:25:19;99734.47;;;20.05;73.48
75208;BME280;63795;55.684;37.864;2023-05-25T12:30:27;99727.56;;;19.94;74.17
75208;BME280;63795;55.684;37.864;2023-05-25T12:35:28;99731.41;;;20.00;73.63
75208;BME280;63795;55.684;37.864;2023-05-25T12:40:28;99733.44;;;19.90;73.33
75208;BME280;63795;55.684;37.864;2023-05-25T12:45:29;99734.16;;;19.73;74.02
75208;BME280;63795;55.684;37.864;2023-05-25T12:50:29;99746.91;;;19.63;74.03
75208;BME280;63795;55.684;37.864;2023-05-25T12:55:31;99748.41;;;19.45;73.97
75208;BME280;63795;55.684;37.864;2023-05-25T13:00:35;99749.34;;;19.42;74.26
75208;BME280;63795;55.684;37.864;2023-05-25T13:05:37;99743.19;;;19.31;74.45
75208;BME280;63795;55.684;37.864;2023-05-25T13:10:38;99741.50;;;19.21;74.61
75208;BME280;63795;55.684;37.864;2023-05-25T13:15:41;99749.94;;;19.16;74.20
75208;BME280;63795;55.684;37.864;2023-05-25T13:20:41;99746.06;;;19.10;74.66
75208;BME280;63795;55.684;37.864;2023-05-25T13:25:42;99749.72;;;19.10;74.75
75208;BME280;63795;55.684;37.864;2023-05-25T13:30:42;99760.22;;;19.04;74.66
75208;BME280;63795;55.684;37.864;2023-05-25T13:35:46;99759.47;;;18.91;74.54
75208;BME280;63795;55.684;37.864;2023-05-25T13:41:05;99777.63;;;18.88;74.44
75208;BME280;63795;55.684;37.864;2023-05-25T13:46:08;99766.75;;;18.83;74.65
75208;BME280;63795;55.684;37.864;2023-05-25T13:51:15;99765.13;;;18.82;74.53
75208;BME280;63795;55.684;37.864;2023-05-25T13:56:16;99763.88;;;18.83;74.28
75208;BME280;63795;55.684;37.864;2023-05-25T14:01:19;99757.59;;;18.76;74.39
75208;BME280;63795;55.684;37.864;2023-05-25T14:06:20;99742.41;;;18.75;74.75
75208;BME280;63795;55.684;37.864;2023-05-25T14:11:27;99736.19;;;18.77;74.38
75208;BME280;63795;55.684;37.864;2023-05-25T14:16:28;99726.56;;;18.71;74.09
75208;BME280;63795;55.684;37.864;2023-05-25T14:21:29;99726.91;;;18.73;73.90
75208;BME280;63795;55.684;37.864;2023-05-25T14:26:30;99728.06;;;18.75;73.93
75208;BME280;63795;55.684;37.864;2023-05-25T14:31:30;99713.75;;;18.84;73.20
75208;BME280;63795;55.684;37.864;2023-05-25T14:36:31;99717.78;;;18.87;73.16
75208;BME280;63795;55.684;37.864;2023-05-25T14:41:31;99713.66;;;18.88;72.78
75208;BME280;63795;55.684;37.864;2023-05-25T14:46:32;99717.63;;;18.90;73.24
75208;BME280;63795;55.684;37.864;2023-05-25T14:51:33;99721.84;;;18.98;73.38
75208;BME280;63795;55.684;37.864;2023-05-25T14:56:33;99732.75;;;19.03;72.95
75208;BME280;63795;55.684;37.864;2023-05-25T15:01:37;99736.88;;;19.02;72.96
75208;BME280;63795;55.684;37.864;2023-05-25T15:06:39;99739.75;;;19.02;73.16
75208;BME280;63795;55.684;37.864;2023-05-25T15:11:40;99730.06;;;18.87;73.57
75208;BME280;63795;55.684;37.864;2023-05-25T15:16:41;99737.53;;;18.85;73.85
75208;BME280;63795;55.684;37.864;2023-05-25T15:21:41;99726.66;;;18.80;73.80
75208;BME280;63795;55.684;37.864;2023-05-25T15:26:42;99727.78;;;18.82;73.32
75208;BME280;63795;55.684;37.864;2023-05-25T15:31:48;99713.34;;;18.73;73.58
75208;BME280;63795;55.684;37.864;2023-05-25T15:36:51;99698.66;;;18.71;73.48
75208;BME280;63795;55.684;37.864;2023-05-25T15:41:52;99704.53;;;18.67;73.73
75208;BME280;63795;55.684;37.864;2023-05-25T15:46:52;99710.06;;;18.62;73.59
75208;BME280;63795;55.684;37.864;2023-05-25T15:51:53;99720.19;;;18.54;73.12
75208;BME280;63795;55.684;37.864;2023-05-25T15:56:53;99714.44;;;18.54;73.17
75208;BME280;63795;55.684;37.864;2023-05-25T16:01:54;99718.00;;;18.58;73.07
75208;BME280;63795;55.684;37.864;2023-05-25T16:07:04;99727.56;;;18.55;73.32
75208;BME280;63795;55.684;37.864;2023-05-25T16:12:05;99720.19;;;18.54;73.37
75208;BME280;63795;55.684;37.864;2023-05-25T16:17:06;99719.19;;;18.48;73.36
75208;BME280;63795;55.684;37.864;2023-05-25T16:22:07;99728.47;;;18.52;72.88
75208;BME280;63795;55.684;37.864;2023-05-25T16:27:07;99711.03;;;18.46;72.99
75208;BME280;63795;55.684;37.864;2023-05-25T16:32:08;99717.59;;;18.47;72.83
75208;BME280;63795;55.684;37.864;2023-05-25T16:37:08;99710.91;;;18.50;72.21
75208;BME280;63795;55.684;37.864;2023-05-25T16:42:09;99708.63;;;18.45;72.83
75208;BME280;63795;55.684;37.864;2023-05-25T16:47:12;99706.09;;;18.34;72.57
75208;BME280;63795;55.684;37.864;2023-05-25T16:52:13;99695.59;;;18.19;72.66
75208;BME280;63795;55.684;37.864;2023-05-25T16:57:22;99695.81;;;18.12;72.70
75208;BME280;63795;55.684;37.864;2023-05-25T17:02:22;99678.53;;;18.03;72.89
75208;BME280;63795;55.684;37.864;2023-05-25T17:07:23;99695.13;;;18.08;72.45
75208;BME280;63795;55.684;37.864;2023-05-25T17:12:23;99683.91;;;18.01;72.93
75208;BME280;63795;55.684;37.864;2023-05-25T17:17:24;99685.63;;;17.98;72.59
75208;BME280;63795;55.684;37.864;2023-05-25T17:22:25;99670.66;;;17.81;72.87
75208;BME280;63795;55.684;37.864;2023-05-25T17:27:26;99688.88;;;17.88;72.62
75208;BME280;63795;55.684;37.864;2023-05-25T17:32:26;99692.78;;;17.81;72.72
75208;BME280;63795;55.684;37.864;2023-05-25T17:37:27;99707.69;;;17.76;72.66
75208;BME280;63795;55.684;37.864;2023-05-25T17:42:27;99717.69;;;17.71;72.43
75208;BME280;63795;55.684;37.864;2023-05-25T17:47:28;99721.00;;;17.70;72.60
75208;BME280;63795;55.684;37.864;2023-05-25T17:52:30;99723.63;;;17.64;72.87
75208;BME280;63795;55.684;37.864;2023-05-25T17:57:30;99716.97;;;17.55;72.93
75208;BME280;63795;55.684;37.864;2023-05-25T18:02:31;99712.81;;;17.43;73.68
75208;BME280;63795;55.684;37.864;2023-05-25T18:07:33;99722.28;;;17.28;75.25
75208;BME280;63795;55.684;37.864;2023-05-25T18:12:33;99727.44;;;17.20;75.95
75208;BME280;63795;55.684;37.864;2023-05-25T18:17:33;99732.59;;;17.13;74.70
75208;BME280;63795;55.684;37.864;2023-05-25T18:22:34;99713.69;;;17.15;73.84
75208;BME280;63795;55.684;37.864;2023-05-25T18:27:35;99713.69;;;17.15;74.37
75208;BME280;63795;55.684;37.864;2023-05-25T18:32:35;99714.91;;;17.01;76.87
75208;BME280;63795;55.684;37.864;2023-05-25T18:37:36;99710.19;;;16.95;75.20
75208;BME280;63795;55.684;37.864;2023-05-25T18:42:36;99705.00;;;16.90;75.09
75208;BME280;63795;55.684;37.864;2023-05-25T18:47:37;99713.72;;;16.86;76.51
75208;BME280;63795;55.684;37.864;2023-05-25T18:52:38;99710.50;;;16.84;75.82
75208;BME280;63795;55.684;37.864;2023-05-25T18:57:38;99714.72;;;16.80;75.80
75208;BME280;63795;55.684;37.864;2023-05-25T19:02:39;99712.78;;;16.77;74.86
75208;BME280;63795;55.684;37.864;2023-05-25T19:07:40;99718.50;;;16.77;75.37
75208;BME280;63795;55.684;37.864;2023-05-25T19:12:42;99728.69;;;16.78;74.88
75208;BME280;63795;55.684;37.864;2023-05-25T19:17:43;99727.78;;;16.81;74.56
75208;BME280;63795;55.684;37.864;2023-05-25T19:22:45;99713.91;;;16.79;74.57
75208;BME280;63795;55.684;37.864;2023-05-25T19:27:46;99714.25;;;16.81;74.64
75208;BME280;63795;55.684;37.864;2023-05-25T19:32:47;99713.47;;;16.81;74.30
75208;BME280;63795;55.684;37.864;2023-05-25T19:37:48;99704.19;;;16.77;75.08
75208;BME280;63795;55.684;37.864;2023-05-25T19:42:48;99713.19;;;16.75;74.53
75208;BME280;63795;55.684;37.864;2023-05-25T19:47:49;99713.13;;;16.79;75.43
75208;BME280;63795;55.684;37.864;2023-05-25T19:52:51;99708.28;;;16.76;75.48
75208;BME280;63795;55.684;37.864;2023-05-25T19:57:52;99688.94;;;16.67;75.14
75208;BME280;63795;55.684;37.864;2023-05-25T20:02:52;99696.00;;;16.63;75.11
75208;BME280;63795;55.684;37.864;2023-05-25T20:07:53;99699.75;;;16.60;76.60
75208;BME280;63795;55.684;37.864;2023-05-25T20:12:55;99705.69;;;16.53;75.70
75208;BME280;63795;55.684;37.864;2023-05-25T20:17:55;99703.63;;;16.53;76.06
75208;BME280;63795;55.684;37.864;2023-05-25T20:22:56;99694.34;;;16.49;77.14
75208;BME280;63795;55.684;37.864;2023-05-25T20:27:56;99700.41;;;16.51;76.05
75208;BME280;63795;55.684;37.864;2023-05-25T20:32:56;99708.91;;;16.55;76.23
75208;BME280;63795;55.684;37.864;2023-05-25T20:37:57;99703.19;;;16.55;75.64
75208;BME280;63795;55.684;37.864;2023-05-25T20:42:57;99699.97;;;16.53;75.50
75208;BME280;63795;55.684;37.864;2023-05-25T20:47:59;99700.41;;;16.51;75.79
75208;BME280;63795;55.684;37.864;2023-05-25T20:53:03;99683.06;;;16.42;75.63
75208;BME280;63795;55.684;37.864;2023-05-25T20:58:03;99688.41;;;16.40;75.87
75208;BME280;63795;55.684;37.864;2023-05-25T21:03:04;99682.09;;;16.33;76.67
75208;BME280;63795;55.684;37.864;2023-05-25T21:08:07;99677.81;;;16.25;77.10
75208;BME280;63795;55.684;37.864;2023-05-25T21:13:07;99695.34;;;16.27;76.62
75208;BME280;63795;55.684;37.864;2023-05-25T21:18:08;99680.78;;;16.21;76.54
75208;BME280;63795;55.684;37.864;2023-05-25T21:23:09;99688.19;;;16.18;76.64
75208;BME280;63795;55.684;37.864;2023-05-25T21:28:09;99677.63;;;16.15;76.81
75208;BME280;63795;55.684;37.864;2023-05-25T21:33:10;99679.78;;;16.11;75.71
75208;BME280;63795;55.684;37.864;2023-05-25T21:38:10;99680.69;;;16.08;75.68
75208;BME280;63795;55.684;37.864;2023-05-25T21:43:11;99669.44;;;16.01;75.57
75208;BME280;63795;55.684;37.864;2023-05-25T21:48:11;99675.25;;;15.98;75.59
75208;BME280;63795;55.684;37.864;2023-05-25T21:53:11;99664.78;;;15.91;77.82
75208;BME280;63795;55.684;37.864;2023-05-25T21:58:13;99668.22;;;15.86;77.20
75208;BME280;63795;55.684;37.864;2023-05-25T22:03:14;99655.59;;;15.84;77.55
75208;BME280;63795;55.684;37.864;2023-05-25T22:08:14;99664.09;;;15.87;77.46
75208;BME280;63795;55.684;37.864;2023-05-25T22:13:15;99652.84;;;15.80;77.00
75208;BME280;63795;55.684;37.864;2023-05-25T22:18:15;99656.06;;;15.82;76.46
75208;BME280;63795;55.684;37.864;2023-05-25T22:23:16;99647.47;;;15.82;77.19
75208;BME280;63795;55.684;37.864;2023-05-25T22:28:16;99650.09;;;15.77;77.75
75208;BME280;63795;55.684;37.864;2023-05-25T22:33:17;99645.69;;;15.72;76.56
75208;BME280;63795;55.684;37.864;2023-05-25T22:38:17;99635.34;;;15.62;77.60
75208;BME280;63795;55.684;37.864;2023-05-25T22:43:17;99649.09;;;15.67;77.15
75208;BME280;63795;55.684;37.864;2023-05-25T22:48:18;99648.38;;;15.63;76.64
75208;BME280;63795;55.684;37.864;2023-05-25T22:53:18;99651.41;;;15.56;76.60
75208;BME280;63795;55.684;37.864;2023-05-25T22:58:19;99650.97;;;15.58;76.75
75208;BME280;63795;55.684;37.864;2023-05-25T23:03:19;99643.91;;;15.46;76.75
75208;BME280;63795;55.684;37.864;2023-05-25T23:08:20;99643.25;;;15.39;76.37
75208;BME280;63795;55.684;37.864;2023-05-25T23:13:20;99646.56;;;15.37;76.34
75208;BME280;63795;55.684;37.864;2023-05-25T23:18:23;99645.75;;;15.37;76.28
75208;BME280;63795;55.684;37.864;2023-05-25T23:23:23;99640.19;;;15.29;76.61
75208;BME280;63795;55.684;37.864;2023-05-25T23:28:24;99659.03;;;15.27;76.43
75208;BME280;63795;55.684;37.864;2023-05-25T23:33:24;99656.25;;;15.23;76.51
75208;BME280;63795;55.684;37.864;2023-05-25T23:38:25;99658.75;;;15.21;76.46
75208;BME280;63795;55.684;37.864;2023-05-25T23:43:25;99669.03;;;15.19;76.52
75208;BME280;63795;55.684;37.864;2023-05-25T23:48:26;99655.97;;;15.18;76.21
75208;BME280;63795;55.684;37.864;2023-05-25T23:53:26;99666.94;;;15.19;76.99
75208;BME280;63795;55.684;37.864;2023-05-25T23:58:26;99668.34;;;15.11;76.36
